createdAt,value
2023-05-15T00:01:44.290Z,1.60
2023-05-15T00:04:48.185Z,0.93
2023-05-15T00:07:51.883Z,1.80
2023-05-15T00:11:01.635Z,1.05
2023-05-15T00:14:05.729Z,1.00
2023-05-15T00:17:10.676Z,0.80
2023-05-15T00:20:14.663Z,1.00
2023-05-15T00:23:18.921Z,1.48
2023-05-15T00:26:24.734Z,0.90
2023-05-15T00:29:28.572Z,1.40
2023-05-15T00:32:32.244Z,0.60
2023-05-15T00:35:36.349Z,1.00
2023-05-15T00:38:40.100Z,1.48
2023-05-15T00:41:46.869Z,2.75
2023-05-15T00:44:50.918Z,1.33
2023-05-15T00:47:55.895Z,0.90
2023-05-15T00:51:00.699Z,2.28
2023-05-15T00:54:05.044Z,1.23
2023-05-15T00:57:10.076Z,1.88
2023-05-15T01:00:17.747Z,1.10
2023-05-15T01:03:21.577Z,1.27
2023-05-15T01:06:25.812Z,0.75
2023-05-15T01:09:30.952Z,1.13
2023-05-15T01:12:37.086Z,0.88
2023-05-15T01:15:41.776Z,1.20
2023-05-15T01:18:45.929Z,1.20
2023-05-15T01:22:06.122Z,1.10
2023-05-15T01:25:38.907Z,1.05
2023-05-15T01:28:49.122Z,0.80
2023-05-15T01:31:58.411Z,0.85
2023-05-15T01:35:17.267Z,0.77
2023-05-15T01:38:34.645Z,1.05
2023-05-15T01:41:52.017Z,0.90
2023-05-15T01:44:58.451Z,0.82
2023-05-15T01:48:08.672Z,0.75
2023-05-15T01:51:14.572Z,1.10
2023-05-15T01:54:19.671Z,1.38
2023-05-15T01:57:25.755Z,2.88
2023-05-15T02:00:30.399Z,1.70
2023-05-15T02:03:35.979Z,1.55
2023-05-15T02:06:41.192Z,2.27
2023-05-15T02:09:46.539Z,1.88
2023-05-15T02:12:51.976Z,1.30
2023-05-15T02:15:58.157Z,2.03
2023-05-15T02:19:02.493Z,1.55
2023-05-15T02:22:06.814Z,1.03
2023-05-15T02:25:10.698Z,1.23
2023-05-15T02:28:23.574Z,1.00
2023-05-15T02:31:56.073Z,1.10
2023-05-15T02:34:59.318Z,1.20
2023-05-15T02:38:08.783Z,1.10
2023-05-15T02:41:13.729Z,1.80
2023-05-15T02:44:19.195Z,1.00
2023-05-15T02:47:25.003Z,1.15
2023-05-15T02:50:29.257Z,0.90
2023-05-15T02:53:34.303Z,1.30
2023-05-15T02:56:37.376Z,0.70
2023-05-15T02:59:42.325Z,1.80
2023-05-15T03:02:45.419Z,1.95
2023-05-15T03:05:49.550Z,1.10
2023-05-15T03:08:53.016Z,1.20
2023-05-15T03:11:56.292Z,1.70
2023-05-15T03:14:59.301Z,1.52
2023-05-15T03:18:03.493Z,3.22
2023-05-15T03:21:06.665Z,2.20
2023-05-15T03:24:10.763Z,0.83
2023-05-15T03:27:13.790Z,1.10
2023-05-15T03:30:17.193Z,1.80
2023-05-15T03:33:20.059Z,1.20
2023-05-15T03:36:23.615Z,1.40
2023-05-15T03:39:27.452Z,1.47
2023-05-15T03:42:30.588Z,0.90
2023-05-15T03:45:37.510Z,0.90
2023-05-15T03:48:40.729Z,1.00
2023-05-15T03:51:44.372Z,0.93
2023-05-15T03:54:50.660Z,1.50
2023-05-15T03:57:54.362Z,1.10
2023-05-15T04:00:58.022Z,0.88
2023-05-15T04:04:01.018Z,0.70
2023-05-15T04:07:03.965Z,0.98
2023-05-15T04:10:08.458Z,1.13
2023-05-15T04:13:12.152Z,0.95
2023-05-15T04:16:16.356Z,0.82
2023-05-15T04:19:20.140Z,1.13
2023-05-15T04:22:24.310Z,1.05
2023-05-15T04:25:28.533Z,0.90
2023-05-15T04:28:32.542Z,0.70
2023-05-15T04:31:35.785Z,1.27
2023-05-15T04:34:41.266Z,0.90
2023-05-15T04:37:47.703Z,1.30
2023-05-15T04:40:50.971Z,0.70
2023-05-15T04:43:53.822Z,0.80
2023-05-15T04:46:56.898Z,0.80
2023-05-15T04:50:00.967Z,0.80
2023-05-15T04:53:04.626Z,0.60
2023-05-15T04:56:08.045Z,0.70
2023-05-15T04:59:11.999Z,0.88
2023-05-15T05:02:16.004Z,0.80
2023-05-15T05:05:19.130Z,0.70
2023-05-15T05:08:23.151Z,0.73
2023-05-15T05:11:26.298Z,0.80
2023-05-15T05:14:29.665Z,0.90
2023-05-15T05:17:32.528Z,0.88
2023-05-15T05:20:37.253Z,0.85
2023-05-15T05:23:40.750Z,1.08
2023-05-15T05:26:46.098Z,0.80
2023-05-15T05:29:49.013Z,0.80
2023-05-15T05:32:51.994Z,0.82
2023-05-15T05:35:56.349Z,1.27
2023-05-15T05:39:00.120Z,1.40
2023-05-15T05:42:03.056Z,3.23
2023-05-15T05:45:07.822Z,1.60
2023-05-15T05:48:11.035Z,2.40
2023-05-15T05:51:14.332Z,1.00
2023-05-15T05:54:18.919Z,0.95
2023-05-15T05:57:22.225Z,0.97
2023-05-15T06:00:25.895Z,0.77
2023-05-15T06:03:29.646Z,1.67
2023-05-15T06:06:34.189Z,1.00
2023-05-15T06:09:38.099Z,1.40
2023-05-15T06:12:41.225Z,1.00
2023-05-15T06:15:46.811Z,1.10
2023-05-15T06:18:50.840Z,0.93
2023-05-15T06:21:54.349Z,1.55
2023-05-15T06:24:57.295Z,1.30
2023-05-15T06:28:01.049Z,0.97
2023-05-15T06:31:04.906Z,1.05
2023-05-15T06:34:07.840Z,0.98
2023-05-15T06:37:13.060Z,1.05
2023-05-15T06:40:16.041Z,0.95
2023-05-15T06:43:18.932Z,0.67
2023-05-15T06:46:22.321Z,0.90
2023-05-15T06:49:25.911Z,0.90
2023-05-15T06:52:28.872Z,0.98
2023-05-15T06:55:31.887Z,1.00
2023-05-15T06:58:35.152Z,0.87
2023-05-15T07:01:39.328Z,2.10
2023-05-15T07:04:42.342Z,0.95
2023-05-15T07:07:46.458Z,1.10
2023-05-15T07:10:50.508Z,1.08
2023-05-15T07:13:54.877Z,0.80
2023-05-15T07:16:58.547Z,1.00
2023-05-15T07:20:01.946Z,1.20
2023-05-15T07:23:06.435Z,1.20
2023-05-15T07:26:16.732Z,0.95
2023-05-15T07:29:24.129Z,0.90
2023-05-15T07:32:28.096Z,1.05
2023-05-15T07:35:31.814Z,1.10
2023-05-15T07:38:36.290Z,0.93
2023-05-15T07:41:39.513Z,0.95
2023-05-15T07:44:44.692Z,1.07
2023-05-15T07:47:50.201Z,0.90
2023-05-15T07:50:54.747Z,1.27
2023-05-15T07:53:58.476Z,1.00
2023-05-15T07:57:02.482Z,1.00
2023-05-15T08:00:11.367Z,0.60
2023-05-15T08:03:15.275Z,0.98
2023-05-15T08:06:19.114Z,1.00
2023-05-15T08:09:23.111Z,1.10
2023-05-15T08:12:27.691Z,1.08
2023-05-15T08:15:31.668Z,1.07
2023-05-15T08:18:35.378Z,1.40
2023-05-15T08:21:39.424Z,1.00
2023-05-15T08:24:43.664Z,0.90
2023-05-15T08:27:47.610Z,1.10
2023-05-15T08:30:50.644Z,1.77
2023-05-15T08:33:54.568Z,1.10
2023-05-15T08:37:00.469Z,1.10
2023-05-15T08:40:11.191Z,1.30
2023-05-15T08:43:18.575Z,1.40
2023-05-15T08:46:24.904Z,1.00
2023-05-15T08:49:42.408Z,1.40
2023-05-15T08:52:47.911Z,3.50
2023-05-15T08:55:51.407Z,1.10
2023-05-15T08:58:55.428Z,1.10
2023-05-15T09:01:59.186Z,1.30
2023-05-15T09:05:04.241Z,0.82
2023-05-15T09:08:09.625Z,1.20
2023-05-15T09:11:29.795Z,1.10
2023-05-15T09:14:33.961Z,1.08
2023-05-15T09:17:37.894Z,1.00
2023-05-15T09:20:42.033Z,1.23
2023-05-15T09:23:45.210Z,2.22
2023-05-15T09:27:03.344Z,1.30
2023-05-15T09:30:11.258Z,1.17
2023-05-15T09:33:17.689Z,1.10
2023-05-15T09:36:23.728Z,1.00
2023-05-15T09:39:26.663Z,1.20
2023-05-15T09:42:36.033Z,0.90
2023-05-15T09:45:39.938Z,1.50
2023-05-15T09:48:44.428Z,1.80
2023-05-15T09:51:49.356Z,1.25
2023-05-15T09:54:53.831Z,1.20
2023-05-15T09:58:11.968Z,1.20
2023-05-15T10:01:21.219Z,1.08
2023-05-15T10:04:24.849Z,1.53
2023-05-15T10:07:32.451Z,1.30
2023-05-15T10:10:36.267Z,1.00
2023-05-15T10:13:40.385Z,1.33
2023-05-15T10:16:46.082Z,1.85
2023-05-15T10:19:58.508Z,1.50
2023-05-15T10:23:06.399Z,1.60
2023-05-15T10:26:16.659Z,1.10
2023-05-15T10:29:26.055Z,1.30
2023-05-15T10:32:35.272Z,1.00
2023-05-15T10:35:40.624Z,1.20
2023-05-15T10:38:45.769Z,2.28
2023-05-15T10:41:52.024Z,1.95
2023-05-15T10:45:01.007Z,1.00
2023-05-15T10:48:08.284Z,1.40
2023-05-15T10:51:20.488Z,0.90
2023-05-15T10:54:24.156Z,1.00
2023-05-15T10:57:30.505Z,1.20
2023-05-15T11:00:34.444Z,1.35
2023-05-15T11:03:48.939Z,1.08
2023-05-15T11:07:13.352Z,1.13
2023-05-15T11:10:29.745Z,1.38
2023-05-15T11:14:15.110Z,1.80
2023-05-15T11:17:18.936Z,4.20
2023-05-15T11:20:35.132Z,3.55
2023-05-15T11:23:41.641Z,2.90
2023-05-15T11:26:44.561Z,2.10
2023-05-15T11:30:06.362Z,1.92
2023-05-15T11:33:14.172Z,1.80
2023-05-15T11:36:19.387Z,2.03
2023-05-15T11:39:26.691Z,2.90
2023-05-15T11:42:30.123Z,2.60
2023-05-15T11:45:39.067Z,2.47
2023-05-15T11:48:44.274Z,6.45
2023-05-15T11:51:52.242Z,4.93
2023-05-15T11:54:56.269Z,7.00
2023-05-15T11:58:01.062Z,8.75
2023-05-15T12:01:05.135Z,8.07
2023-05-15T12:04:19.023Z,7.45
2023-05-15T12:07:22.545Z,8.65
2023-05-15T12:10:25.963Z,7.23
2023-05-15T12:13:29.305Z,6.35
2023-05-15T12:16:32.370Z,8.63
2023-05-15T12:19:37.132Z,6.80
2023-05-15T12:22:42.582Z,6.68
2023-05-15T12:25:48.603Z,4.80
2023-05-15T12:28:55.012Z,4.35
2023-05-15T12:31:58.641Z,4.05
2023-05-15T12:35:03.813Z,7.63
2023-05-15T12:38:08.332Z,6.72
2023-05-15T12:41:12.818Z,5.47
2023-05-15T12:44:19.444Z,6.38
2023-05-15T12:47:27.789Z,6.68
2023-05-15T12:50:34.090Z,6.35
2023-05-15T12:53:40.304Z,5.97
2023-05-15T12:56:44.011Z,8.13
2023-05-15T12:59:47.119Z,21.77
2023-05-15T13:02:56.488Z,26.55
2023-05-15T13:05:59.852Z,36.15
2023-05-15T13:09:03.953Z,25.48
2023-05-15T13:12:07.753Z,18.80
2023-05-15T13:15:25.744Z,19.85
2023-05-15T13:18:29.475Z,20.92
2023-05-15T13:21:33.921Z,18.95
2023-05-15T13:24:37.630Z,9.80
2023-05-15T13:27:42.253Z,9.63
2023-05-15T13:30:46.439Z,8.90
2023-05-15T13:33:50.480Z,9.68
2023-05-15T13:36:54.170Z,13.82
2023-05-15T13:39:58.092Z,15.00
2023-05-15T13:43:01.560Z,14.40
2023-05-15T13:46:05.843Z,14.57
2023-05-15T13:49:11.815Z,14.57
2023-05-15T13:52:16.195Z,24.63
2023-05-15T13:55:20.924Z,17.65
2023-05-15T13:58:27.511Z,19.40
2023-05-15T14:01:31.178Z,24.60
2023-05-15T14:04:35.210Z,23.05
2023-05-15T14:07:39.148Z,12.38
2023-05-15T14:10:43.083Z,11.32
2023-05-15T14:13:47.903Z,10.90
2023-05-15T14:16:52.030Z,9.43
2023-05-15T14:19:55.999Z,9.20
2023-05-15T14:22:59.966Z,9.30
2023-05-15T14:26:03.606Z,7.05
2023-05-15T14:29:07.716Z,6.83
2023-05-15T14:32:11.516Z,8.65
2023-05-15T14:35:15.533Z,10.10
2023-05-15T14:38:18.903Z,10.02
2023-05-15T14:41:23.032Z,9.35
2023-05-15T14:44:26.743Z,8.37
2023-05-15T14:47:30.911Z,8.10
2023-05-15T14:50:34.588Z,8.65
2023-05-15T14:53:38.735Z,23.52
2023-05-15T14:56:42.456Z,23.27
2023-05-15T14:59:46.587Z,31.03
2023-05-15T15:02:50.363Z,29.77
2023-05-15T15:05:54.416Z,34.45
2023-05-15T15:08:58.128Z,32.60
2023-05-15T15:12:02.102Z,31.90
2023-05-15T15:15:07.252Z,26.47
2023-05-15T15:18:11.352Z,25.45
2023-05-15T15:21:15.391Z,21.17
2023-05-15T15:24:19.229Z,19.38
2023-05-15T15:27:22.939Z,14.85
2023-05-15T15:30:27.096Z,14.83
2023-05-15T15:33:31.168Z,16.55
2023-05-15T15:36:38.272Z,15.25
2023-05-15T15:39:42.035Z,16.25
2023-05-15T15:42:46.047Z,18.45
2023-05-15T15:45:49.321Z,21.47
2023-05-15T15:48:53.395Z,16.45
2023-05-15T15:51:57.018Z,14.15
2023-05-15T15:55:00.933Z,11.23
2023-05-15T15:58:04.927Z,10.77
2023-05-15T16:01:08.847Z,9.17
2023-05-15T16:04:12.557Z,10.43
2023-05-15T16:07:16.754Z,9.73
2023-05-15T16:10:20.468Z,9.88
2023-05-15T16:13:24.436Z,10.95
2023-05-15T16:16:28.405Z,9.57
2023-05-15T16:19:32.100Z,9.88
2023-05-15T16:22:35.853Z,8.88
2023-05-15T16:25:39.820Z,8.05
2023-05-15T16:28:43.228Z,8.35
2023-05-15T16:31:47.824Z,9.33
2023-05-15T16:34:51.514Z,8.20
2023-05-15T16:37:55.570Z,7.30
2023-05-15T16:40:59.194Z,6.75
2023-05-15T16:44:04.207Z,7.80
2023-05-15T16:47:07.914Z,7.60
2023-05-15T16:50:12.085Z,7.28
2023-05-15T16:53:16.021Z,9.25
2023-05-15T16:56:20.049Z,8.65
2023-05-15T16:59:23.795Z,10.50
2023-05-15T17:02:27.634Z,9.80
2023-05-15T17:05:31.415Z,10.57
2023-05-15T17:08:35.610Z,10.15
2023-05-15T17:11:39.222Z,10.90
2023-05-15T17:14:43.151Z,10.30
2023-05-15T17:17:46.888Z,9.63
2023-05-15T17:20:50.872Z,9.40
2023-05-15T17:23:54.811Z,8.73
2023-05-15T17:26:58.726Z,9.90
2023-05-15T17:30:02.573Z,12.23
2023-05-15T17:33:06.715Z,12.47
2023-05-15T17:36:11.054Z,10.20
2023-05-15T17:39:15.389Z,9.05
2023-05-15T17:42:18.725Z,10.13
2023-05-15T17:45:22.682Z,9.35
2023-05-15T17:48:27.323Z,8.23
2023-05-15T17:51:30.869Z,9.85
2023-05-15T17:54:34.554Z,8.80
2023-05-15T17:57:38.545Z,9.38
2023-05-15T18:00:42.137Z,8.40
2023-05-15T18:03:46.187Z,9.70
2023-05-15T18:06:50.295Z,10.20
2023-05-15T18:09:54.333Z,11.80
2023-05-15T18:12:59.026Z,9.63
2023-05-15T18:16:02.996Z,9.10
2023-05-15T18:19:07.749Z,9.93
2023-05-15T18:22:11.964Z,11.05
2023-05-15T18:25:17.129Z,13.93
2023-05-15T18:28:20.386Z,13.68
2023-05-15T18:31:24.116Z,10.43
2023-05-15T18:34:28.161Z,13.10
2023-05-15T18:37:31.873Z,13.45
2023-05-15T18:40:35.852Z,15.95
2023-05-15T18:43:39.424Z,15.23
2023-05-15T18:46:43.630Z,13.35
2023-05-15T18:49:47.560Z,11.20
2023-05-15T18:52:51.950Z,8.35
2023-05-15T18:55:55.587Z,7.00
2023-05-15T18:58:59.741Z,6.95
2023-05-15T19:02:03.238Z,5.72
2023-05-15T19:05:08.373Z,6.33
2023-05-15T19:08:12.001Z,5.32
2023-05-15T19:11:16.551Z,5.32
2023-05-15T19:14:20.068Z,6.05
2023-05-15T19:17:25.175Z,5.07
2023-05-15T19:20:28.918Z,4.60
2023-05-15T19:23:32.801Z,3.80
2023-05-15T19:26:36.452Z,3.50
2023-05-15T19:29:42.785Z,5.43
2023-05-15T19:32:46.601Z,6.63
2023-05-15T19:35:50.590Z,5.27
2023-05-15T19:38:54.585Z,5.95
2023-05-15T19:41:59.168Z,14.20
2023-05-15T19:45:02.617Z,20.38
2023-05-15T19:48:06.753Z,22.17
2023-05-15T19:51:10.750Z,16.23
2023-05-15T19:54:14.688Z,10.68
2023-05-15T19:57:18.369Z,8.60
2023-05-15T20:00:22.437Z,8.35
2023-05-15T20:03:33.360Z,10.70
2023-05-15T20:06:37.615Z,10.07
2023-05-15T20:09:41.435Z,7.75
2023-05-15T20:12:46.574Z,7.18
2023-05-15T20:15:57.521Z,7.32
2023-05-15T20:19:01.624Z,6.10
2023-05-15T20:22:05.461Z,8.40
2023-05-15T20:25:09.930Z,5.28
2023-05-15T20:28:13.820Z,5.05
2023-05-15T20:31:17.882Z,3.88
2023-05-15T20:34:22.373Z,3.25
2023-05-15T20:37:28.275Z,3.67
2023-05-15T20:40:32.067Z,3.00
2023-05-15T20:43:36.047Z,15.90
2023-05-15T20:46:40.590Z,33.15
2023-05-15T20:49:44.881Z,40.42
2023-05-15T20:52:48.340Z,35.33
2023-05-15T20:55:52.266Z,32.78
2023-05-15T20:58:58.954Z,30.25
2023-05-15T21:02:03.651Z,31.20
2023-05-15T21:05:07.491Z,31.77
2023-05-15T21:08:11.518Z,31.45
2023-05-15T21:11:14.914Z,28.40
2023-05-15T21:14:18.554Z,34.25
2023-05-15T21:17:22.192Z,32.75
2023-05-15T21:20:27.877Z,31.97
2023-05-15T21:23:31.600Z,31.23
2023-05-15T21:26:35.823Z,27.30
2023-05-15T21:29:39.651Z,22.35
2023-05-15T21:32:43.777Z,22.63
2023-05-15T21:35:49.232Z,25.43
2023-05-15T21:38:53.229Z,29.10
2023-05-15T21:41:56.948Z,28.42
2023-05-15T21:45:01.147Z,28.55
2023-05-15T21:48:05.004Z,31.35
2023-05-15T21:51:08.828Z,35.60
2023-05-15T21:54:12.421Z,33.90
2023-05-15T21:57:16.042Z,27.30
2023-05-15T22:00:19.901Z,21.77
2023-05-15T22:03:24.184Z,20.52
2023-05-15T22:06:27.852Z,22.40
2023-05-15T22:09:32.046Z,21.27
2023-05-15T22:12:35.565Z,20.88
2023-05-15T22:15:39.540Z,21.58
2023-05-15T22:18:45.453Z,21.48
2023-05-15T22:21:49.398Z,22.97
2023-05-15T22:24:52.990Z,21.45
2023-05-15T22:27:57.061Z,18.98
2023-05-15T22:31:00.580Z,20.88
2023-05-15T22:34:04.125Z,22.05
2023-05-15T22:37:07.715Z,22.33
2023-05-15T22:40:12.540Z,22.63
2023-05-15T22:43:15.689Z,24.05
2023-05-15T22:46:19.751Z,23.77
2023-05-15T22:49:27.066Z,22.63
2023-05-15T22:52:30.612Z,21.83
2023-05-15T22:55:34.215Z,16.30
2023-05-15T22:58:38.251Z,16.15
2023-05-15T23:01:43.164Z,15.02
2023-05-15T23:04:46.376Z,14.90
2023-05-15T23:07:50.686Z,13.20
2023-05-15T23:10:56.869Z,13.93
2023-05-15T23:14:00.539Z,15.27
2023-05-15T23:17:05.348Z,13.95
2023-05-15T23:20:13.328Z,14.88
2023-05-15T23:23:17.095Z,13.43
2023-05-15T23:26:20.017Z,13.67
2023-05-15T23:29:23.357Z,13.57
2023-05-15T23:32:26.628Z,13.27
2023-05-15T23:35:30.616Z,11.15
2023-05-15T23:38:34.500Z,11.65
2023-05-15T23:41:38.481Z,9.60
2023-05-15T23:44:42.067Z,10.75
2023-05-15T23:47:47.426Z,10.00
2023-05-15T23:50:52.802Z,8.32
2023-05-15T23:53:57.120Z,8.07
2023-05-15T23:57:00.750Z,9.10
